sensor_id;sensor_type;location;lat;lon;timestamp;P1;durP1;ratioP1;P2;durP2;ratioP2
19329;SDS011;9799;48.214;16.388;2022-12-17T00:01:59;47.17;;;28.10;;
19329;SDS011;9799;48.214;16.388;2022-12-17T00:05:38;47.87;;;27.37;;
19329;SDS011;9799;48.214;16.388;2022-12-17T00:09:17;42.17;;;26.33;;
19329;SDS011;9799;48.214;16.388;2022-12-17T00:12:56;40.40;;;26.93;;
19329;SDS011;9799;48.214;16.388;2022-12-17T00:16:34;47.23;;;27.60;;
19329;SDS011;9799;48.214;16.388;2022-12-17T00:20:13;50.73;;;26.87;;
19329;SDS011;9799;48.214;16.388;2022-12-17T00:23:52;45.07;;;24.93;;
19329;SDS011;9799;48.214;16.388;2022-12-17T00:27:32;46.67;;;26.17;;
19329;SDS011;9799;48.214;16.388;2022-12-17T00:31:10;47.90;;;27.90;;
19329;SDS011;9799;48.214;16.388;2022-12-17T00:34:49;43.70;;;26.30;;
19329;SDS011;9799;48.214;16.388;2022-12-17T00:38:27;44.97;;;26.40;;
19329;SDS011;9799;48.214;16.388;2022-12-17T00:42:06;45.17;;;25.80;;
19329;SDS011;9799;48.214;16.388;2022-12-17T00:45:46;43.37;;;25.33;;
19329;SDS011;9799;48.214;16.388;2022-12-17T00:49:25;46.73;;;26.87;;
19329;SDS011;9799;48.214;16.388;2022-12-17T00:53:03;46.93;;;27.17;;
19329;SDS011;9799;48.214;16.388;2022-12-17T00:56:42;45.20;;;25.93;;
19329;SDS011;9799;48.214;16.388;2022-12-17T01:00:20;46.70;;;26.47;;
19329;SDS011;9799;48.214;16.388;2022-12-17T01:04:00;41.73;;;25.33;;
19329;SDS011;9799;48.214;16.388;2022-12-17T01:07:39;46.27;;;27.07;;
19329;SDS011;9799;48.214;16.388;2022-12-17T01:11:17;44.93;;;26.97;;
19329;SDS011;9799;48.214;16.388;2022-12-17T01:14:55;47.33;;;27.80;;
19329;SDS011;9799;48.214;16.388;2022-12-17T01:18:34;48.07;;;27.90;;
19329;SDS011;9799;48.214;16.388;2022-12-17T01:22:14;48.27;;;27.13;;
19329;SDS011;9799;48.214;16.388;2022-12-17T01:25:53;47.37;;;25.87;;
19329;SDS011;9799;48.214;16.388;2022-12-17T01:29:32;52.57;;;27.17;;
19329;SDS011;9799;48.214;16.388;2022-12-17T01:33:11;44.80;;;27.40;;
19329;SDS011;9799;48.214;16.388;2022-12-17T01:36:49;47.87;;;26.50;;
19329;SDS011;9799;48.214;16.388;2022-12-17T01:40:29;50.47;;;28.40;;
19329;SDS011;9799;48.214;16.388;2022-12-17T01:48:26;47.43;;;26.43;;
19329;SDS011;9799;48.214;16.388;2022-12-17T01:52:06;49.50;;;29.30;;
19329;SDS011;9799;48.214;16.388;2022-12-17T01:55:48;45.40;;;27.37;;
19329;SDS011;9799;48.214;16.388;2022-12-17T01:59:28;48.17;;;27.77;;
19329;SDS011;9799;48.214;16.388;2022-12-17T02:03:14;49.67;;;29.20;;
19329;SDS011;9799;48.214;16.388;2022-12-17T02:06:56;44.23;;;27.43;;
19329;SDS011;9799;48.214;16.388;2022-12-17T02:10:43;51.07;;;28.23;;
19329;SDS011;9799;48.214;16.388;2022-12-17T02:14:32;46.33;;;27.13;;
19329;SDS011;9799;48.214;16.388;2022-12-17T02:18:13;48.10;;;28.13;;
19329;SDS011;9799;48.214;16.388;2022-12-17T02:21:56;43.00;;;26.13;;
19329;SDS011;9799;48.214;16.388;2022-12-17T02:25:45;48.40;;;28.93;;
19329;SDS011;9799;48.214;16.388;2022-12-17T02:29:30;44.67;;;27.67;;
19329;SDS011;9799;48.214;16.388;2022-12-17T02:33:12;49.37;;;28.70;;
19329;SDS011;9799;48.214;16.388;2022-12-17T02:36:51;49.33;;;28.27;;
19329;SDS011;9799;48.214;16.388;2022-12-17T02:40:30;46.30;;;27.67;;
19329;SDS011;9799;48.214;16.388;2022-12-17T02:44:16;48.70;;;27.97;;
19329;SDS011;9799;48.214;16.388;2022-12-17T02:47:57;49.53;;;27.53;;
19329;SDS011;9799;48.214;16.388;2022-12-17T02:51:37;46.17;;;28.07;;
19329;SDS011;9799;48.214;16.388;2022-12-17T02:55:16;48.97;;;28.63;;
19329;SDS011;9799;48.214;16.388;2022-12-17T02:58:54;43.77;;;27.83;;
19329;SDS011;9799;48.214;16.388;2022-12-17T03:02:33;48.43;;;29.70;;
19329;SDS011;9799;48.214;16.388;2022-12-17T03:06:12;52.40;;;27.73;;
19329;SDS011;9799;48.214;16.388;2022-12-17T03:09:51;42.90;;;26.73;;
19329;SDS011;9799;48.214;16.388;2022-12-17T03:13:29;43.20;;;26.43;;
19329;SDS011;9799;48.214;16.388;2022-12-17T03:17:08;46.97;;;27.27;;
19329;SDS011;9799;48.214;16.388;2022-12-17T03:20:46;48.47;;;26.57;;
19329;SDS011;9799;48.214;16.388;2022-12-17T03:24:31;48.53;;;27.90;;
19329;SDS011;9799;48.214;16.388;2022-12-17T03:28:10;48.27;;;27.30;;
19329;SDS011;9799;48.214;16.388;2022-12-17T03:31:49;45.70;;;28.30;;
19329;SDS011;9799;48.214;16.388;2022-12-17T03:35:27;47.93;;;27.63;;
19329;SDS011;9799;48.214;16.388;2022-12-17T03:39:06;46.97;;;26.37;;
19329;SDS011;9799;48.214;16.388;2022-12-17T03:42:46;45.90;;;27.67;;
19329;SDS011;9799;48.214;16.388;2022-12-17T03:46:24;51.50;;;27.57;;
19329;SDS011;9799;48.214;16.388;2022-12-17T03:50:03;46.17;;;26.80;;
19329;SDS011;9799;48.214;16.388;2022-12-17T03:53:43;38.83;;;26.13;;
19329;SDS011;9799;48.214;16.388;2022-12-17T03:57:21;41.10;;;24.80;;
19329;SDS011;9799;48.214;16.388;2022-12-17T04:01:01;40.83;;;25.03;;
19329;SDS011;9799;48.214;16.388;2022-12-17T04:04:40;43.67;;;25.13;;
19329;SDS011;9799;48.214;16.388;2022-12-17T04:08:19;41.27;;;25.73;;
19329;SDS011;9799;48.214;16.388;2022-12-17T04:11:57;39.33;;;24.43;;
19329;SDS011;9799;48.214;16.388;2022-12-17T04:15:36;42.00;;;25.17;;
19329;SDS011;9799;48.214;16.388;2022-12-17T04:19:16;43.50;;;25.10;;
19329;SDS011;9799;48.214;16.388;2022-12-17T04:22:51;42.80;;;26.10;;
19329;SDS011;9799;48.214;16.388;2022-12-17T04:26:29;43.40;;;25.13;;
19329;SDS011;9799;48.214;16.388;2022-12-17T04:30:09;40.37;;;24.90;;
19329;SDS011;9799;48.214;16.388;2022-12-17T04:33:47;43.37;;;25.77;;
19329;SDS011;9799;48.214;16.388;2022-12-17T04:37:30;40.27;;;24.17;;
19329;SDS011;9799;48.214;16.388;2022-12-17T04:41:08;37.40;;;22.77;;
19329;SDS011;9799;48.214;16.388;2022-12-17T04:44:47;42.23;;;25.37;;
19329;SDS011;9799;48.214;16.388;2022-12-17T04:48:26;41.47;;;23.03;;
19329;SDS011;9799;48.214;16.388;2022-12-17T04:52:04;40.87;;;23.17;;
19329;SDS011;9799;48.214;16.388;2022-12-17T04:55:44;42.10;;;23.77;;
19329;SDS011;9799;48.214;16.388;2022-12-17T04:59:23;38.00;;;23.10;;
19329;SDS011;9799;48.214;16.388;2022-12-17T05:03:04;39.07;;;22.93;;
19329;SDS011;9799;48.214;16.388;2022-12-17T05:06:44;44.13;;;24.50;;
19329;SDS011;9799;48.214;16.388;2022-12-17T05:10:22;47.87;;;25.37;;
19329;SDS011;9799;48.214;16.388;2022-12-17T05:14:02;42.43;;;25.07;;
19329;SDS011;9799;48.214;16.388;2022-12-17T05:17:41;44.50;;;26.30;;
19329;SDS011;9799;48.214;16.388;2022-12-17T05:21:19;40.07;;;23.63;;
19329;SDS011;9799;48.214;16.388;2022-12-17T05:24:57;43.47;;;24.83;;
19329;SDS011;9799;48.214;16.388;2022-12-17T05:28:36;40.90;;;24.57;;
19329;SDS011;9799;48.214;16.388;2022-12-17T05:32:16;40.40;;;24.97;;
19329;SDS011;9799;48.214;16.388;2022-12-17T05:36:03;35.47;;;23.40;;
19329;SDS011;9799;48.214;16.388;2022-12-17T05:39:42;42.03;;;24.30;;
19329;SDS011;9799;48.214;16.388;2022-12-17T05:43:21;43.63;;;24.00;;
19329;SDS011;9799;48.214;16.388;2022-12-17T05:46:59;40.43;;;22.80;;
19329;SDS011;9799;48.214;16.388;2022-12-17T05:50:39;45.43;;;24.67;;
19329;SDS011;9799;48.214;16.388;2022-12-17T05:54:18;41.87;;;24.53;;
19329;SDS011;9799;48.214;16.388;2022-12-17T05:58:00;40.67;;;24.17;;
19329;SDS011;9799;48.214;16.388;2022-12-17T06:01:40;43.00;;;23.70;;
19329;SDS011;9799;48.214;16.388;2022-12-17T06:05:18;43.73;;;24.50;;
19329;SDS011;9799;48.214;16.388;2022-12-17T06:09:01;45.47;;;24.23;;
19329;SDS011;9799;48.214;16.388;2022-12-17T06:12:40;46.37;;;25.70;;
19329;SDS011;9799;48.214;16.388;2022-12-17T06:16:18;42.87;;;23.80;;
19329;SDS011;9799;48.214;16.388;2022-12-17T06:19:58;44.03;;;24.73;;
19329;SDS011;9799;48.214;16.388;2022-12-17T06:23:33;41.40;;;24.13;;
19329;SDS011;9799;48.214;16.388;2022-12-17T06:27:13;43.77;;;24.73;;
19329;SDS011;9799;48.214;16.388;2022-12-17T06:30:52;39.67;;;23.73;;
19329;SDS011;9799;48.214;16.388;2022-12-17T06:34:32;47.00;;;25.00;;
19329;SDS011;9799;48.214;16.388;2022-12-17T06:38:10;44.23;;;25.20;;
19329;SDS011;9799;48.214;16.388;2022-12-17T06:41:51;42.13;;;25.07;;
19329;SDS011;9799;48.214;16.388;2022-12-17T06:45:31;44.67;;;25.80;;
19329;SDS011;9799;48.214;16.388;2022-12-17T06:49:12;42.63;;;24.67;;
19329;SDS011;9799;48.214;16.388;2022-12-17T06:52:56;45.03;;;25.73;;
19329;SDS011;9799;48.214;16.388;2022-12-17T06:56:36;45.73;;;25.17;;
19329;SDS011;9799;48.214;16.388;2022-12-17T07:00:14;45.17;;;24.40;;
19329;SDS011;9799;48.214;16.388;2022-12-17T07:03:54;48.80;;;26.40;;
19329;SDS011;9799;48.214;16.388;2022-12-17T07:07:33;47.90;;;25.93;;
19329;SDS011;9799;48.214;16.388;2022-12-17T07:11:12;44.10;;;25.87;;
19329;SDS011;9799;48.214;16.388;2022-12-17T07:14:50;56.97;;;28.80;;
19329;SDS011;9799;48.214;16.388;2022-12-17T07:18:28;48.27;;;27.27;;
19329;SDS011;9799;48.214;16.388;2022-12-17T07:22:08;42.70;;;24.27;;
19329;SDS011;9799;48.214;16.388;2022-12-17T07:25:47;44.10;;;25.10;;
19329;SDS011;9799;48.214;16.388;2022-12-17T07:29:25;45.73;;;23.53;;
19329;SDS011;9799;48.214;16.388;2022-12-17T07:33:04;49.77;;;26.90;;
19329;SDS011;9799;48.214;16.388;2022-12-17T07:36:43;45.67;;;27.23;;
19329;SDS011;9799;48.214;16.388;2022-12-17T07:40:24;46.33;;;24.87;;
19329;SDS011;9799;48.214;16.388;2022-12-17T07:44:02;45.27;;;25.93;;
19329;SDS011;9799;48.214;16.388;2022-12-17T07:47:41;42.37;;;25.53;;
19329;SDS011;9799;48.214;16.388;2022-12-17T07:51:19;42.00;;;24.20;;
19329;SDS011;9799;48.214;16.388;2022-12-17T07:54:58;41.30;;;24.87;;
19329;SDS011;9799;48.214;16.388;2022-12-17T07:58:38;43.43;;;24.03;;
19329;SDS011;9799;48.214;16.388;2022-12-17T08:02:16;47.20;;;27.67;;
19329;SDS011;9799;48.214;16.388;2022-12-17T08:05:55;46.67;;;25.77;;
19329;SDS011;9799;48.214;16.388;2022-12-17T08:09:34;42.23;;;23.50;;
19329;SDS011;9799;48.214;16.388;2022-12-17T08:13:13;46.37;;;25.43;;
19329;SDS011;9799;48.214;16.388;2022-12-17T08:16:53;42.03;;;23.03;;
19329;SDS011;9799;48.214;16.388;2022-12-17T08:20:31;39.23;;;23.00;;
19329;SDS011;9799;48.214;16.388;2022-12-17T08:24:13;48.10;;;24.97;;
19329;SDS011;9799;48.214;16.388;2022-12-17T08:27:54;49.07;;;24.73;;
19329;SDS011;9799;48.214;16.388;2022-12-17T08:31:33;41.40;;;25.07;;
19329;SDS011;9799;48.214;16.388;2022-12-17T08:35:13;47.20;;;25.43;;
19329;SDS011;9799;48.214;16.388;2022-12-17T08:38:52;43.67;;;23.70;;
19329;SDS011;9799;48.214;16.388;2022-12-17T08:42:30;44.40;;;25.60;;
19329;SDS011;9799;48.214;16.388;2022-12-17T08:46:09;71.40;;;36.93;;
19329;SDS011;9799;48.214;16.388;2022-12-17T08:49:47;60.83;;;32.50;;
19329;SDS011;9799;48.214;16.388;2022-12-17T08:53:27;47.27;;;28.17;;
19329;SDS011;9799;48.214;16.388;2022-12-17T08:57:06;47.93;;;26.43;;
19329;SDS011;9799;48.214;16.388;2022-12-17T09:00:44;44.43;;;24.17;;
19329;SDS011;9799;48.214;16.388;2022-12-17T09:04:26;48.27;;;25.87;;
19329;SDS011;9799;48.214;16.388;2022-12-17T09:08:05;47.43;;;25.93;;
19329;SDS011;9799;48.214;16.388;2022-12-17T09:11:45;48.20;;;26.63;;
19329;SDS011;9799;48.214;16.388;2022-12-17T09:15:23;47.60;;;27.33;;
19329;SDS011;9799;48.214;16.388;2022-12-17T09:19:02;48.77;;;27.40;;
19329;SDS011;9799;48.214;16.388;2022-12-17T09:22:40;50.53;;;26.40;;
19329;SDS011;9799;48.214;16.388;2022-12-17T09:26:19;47.03;;;25.67;;
19329;SDS011;9799;48.214;16.388;2022-12-17T09:29:59;47.93;;;26.03;;
19329;SDS011;9799;48.214;16.388;2022-12-17T09:33:38;49.30;;;27.13;;
19329;SDS011;9799;48.214;16.388;2022-12-17T09:37:17;48.00;;;27.43;;
19329;SDS011;9799;48.214;16.388;2022-12-17T09:40:55;49.93;;;28.87;;
19329;SDS011;9799;48.214;16.388;2022-12-17T09:44:52;38.00;;;23.40;;
19329;SDS011;9799;48.214;16.388;2022-12-17T09:48:37;41.33;;;24.93;;
19329;SDS011;9799;48.214;16.388;2022-12-17T09:52:31;36.87;;;24.00;;
19329;SDS011;9799;48.214;16.388;2022-12-17T09:56:12;46.50;;;26.60;;
19329;SDS011;9799;48.214;16.388;2022-12-17T09:59:52;43.37;;;24.20;;
19329;SDS011;9799;48.214;16.388;2022-12-17T10:03:31;44.87;;;27.07;;
19329;SDS011;9799;48.214;16.388;2022-12-17T10:07:19;41.80;;;24.77;;
19329;SDS011;9799;48.214;16.388;2022-12-17T10:11:08;46.07;;;24.10;;
19329;SDS011;9799;48.214;16.388;2022-12-17T10:14:51;43.80;;;24.73;;
19329;SDS011;9799;48.214;16.388;2022-12-17T10:18:29;42.70;;;23.50;;
19329;SDS011;9799;48.214;16.388;2022-12-17T10:22:09;40.77;;;22.47;;
19329;SDS011;9799;48.214;16.388;2022-12-17T10:25:51;36.93;;;22.33;;
19329;SDS011;9799;48.214;16.388;2022-12-17T10:29:31;30.77;;;19.13;;
19329;SDS011;9799;48.214;16.388;2022-12-17T10:33:12;39.47;;;22.10;;
19329;SDS011;9799;48.214;16.388;2022-12-17T10:36:56;39.47;;;22.73;;
19329;SDS011;9799;48.214;16.388;2022-12-17T10:40:34;36.27;;;21.17;;
19329;SDS011;9799;48.214;16.388;2022-12-17T10:44:21;38.57;;;23.57;;
19329;SDS011;9799;48.214;16.388;2022-12-17T10:48:20;42.63;;;23.50;;
19329;SDS011;9799;48.214;16.388;2022-12-17T10:52:01;38.07;;;24.73;;
19329;SDS011;9799;48.214;16.388;2022-12-17T10:55:46;43.30;;;24.97;;
19329;SDS011;9799;48.214;16.388;2022-12-17T10:59:29;41.67;;;23.43;;
19329;SDS011;9799;48.214;16.388;2022-12-17T11:03:21;40.70;;;24.43;;
19329;SDS011;9799;48.214;16.388;2022-12-17T11:07:09;51.67;;;25.53;;
19329;SDS011;9799;48.214;16.388;2022-12-17T11:10:52;42.17;;;24.20;;
19329;SDS011;9799;48.214;16.388;2022-12-17T11:14:32;40.93;;;24.43;;
19329;SDS011;9799;48.214;16.388;2022-12-17T11:18:18;45.63;;;25.57;;
19329;SDS011;9799;48.214;16.388;2022-12-17T11:22:00;41.27;;;23.70;;
19329;SDS011;9799;48.214;16.388;2022-12-17T11:25:59;47.73;;;26.00;;
19329;SDS011;9799;48.214;16.388;2022-12-17T11:29:44;48.07;;;27.40;;
19329;SDS011;9799;48.214;16.388;2022-12-17T11:33:23;51.10;;;28.67;;
19329;SDS011;9799;48.214;16.388;2022-12-17T11:37:12;44.23;;;25.40;;
19329;SDS011;9799;48.214;16.388;2022-12-17T11:40:57;41.20;;;24.50;;
19329;SDS011;9799;48.214;16.388;2022-12-17T11:44:49;36.30;;;23.13;;
19329;SDS011;9799;48.214;16.388;2022-12-17T11:48:35;39.67;;;23.27;;
19329;SDS011;9799;48.214;16.388;2022-12-17T11:52:22;43.07;;;25.47;;
19329;SDS011;9799;48.214;16.388;2022-12-17T11:56:08;39.97;;;24.47;;
19329;SDS011;9799;48.214;16.388;2022-12-17T11:59:55;40.20;;;23.43;;
19329;SDS011;9799;48.214;16.388;2022-12-17T12:03:39;42.23;;;22.33;;
19329;SDS011;9799;48.214;16.388;2022-12-17T12:07:27;41.83;;;23.37;;
19329;SDS011;9799;48.214;16.388;2022-12-17T12:11:16;36.20;;;22.67;;
19329;SDS011;9799;48.214;16.388;2022-12-17T12:15:05;45.77;;;24.97;;
19329;SDS011;9799;48.214;16.388;2022-12-17T12:18:53;37.10;;;22.33;;
19329;SDS011;9799;48.214;16.388;2022-12-17T12:22:38;40.47;;;22.67;;
19329;SDS011;9799;48.214;16.388;2022-12-17T12:26:26;37.70;;;22.57;;
19329;SDS011;9799;48.214;16.388;2022-12-17T12:30:14;36.93;;;22.23;;
19329;SDS011;9799;48.214;16.388;2022-12-17T12:34:03;36.80;;;22.07;;
19329;SDS011;9799;48.214;16.388;2022-12-17T12:37:45;37.80;;;21.37;;
19329;SDS011;9799;48.214;16.388;2022-12-17T12:41:26;33.70;;;20.40;;
19329;SDS011;9799;48.214;16.388;2022-12-17T12:45:25;34.73;;;21.13;;
19329;SDS011;9799;48.214;16.388;2022-12-17T12:49:12;37.13;;;19.73;;
19329;SDS011;9799;48.214;16.388;2022-12-17T12:52:56;35.50;;;20.97;;
19329;SDS011;9799;48.214;16.388;2022-12-17T12:56:35;32.83;;;20.53;;
19329;SDS011;9799;48.214;16.388;2022-12-17T13:00:24;36.73;;;20.70;;
19329;SDS011;9799;48.214;16.388;2022-12-17T13:04:14;34.10;;;19.90;;
19329;SDS011;9799;48.214;16.388;2022-12-17T13:08:14;33.47;;;20.80;;
19329;SDS011;9799;48.214;16.388;2022-12-17T13:11:39;37.17;;;21.50;;
19329;SDS011;9799;48.214;16.388;2022-12-17T13:15:14;36.13;;;21.23;;
19329;SDS011;9799;48.214;16.388;2022-12-17T13:18:40;39.30;;;22.90;;
19329;SDS011;9799;48.214;16.388;2022-12-17T13:22:08;33.87;;;21.57;;
19329;SDS011;9799;48.214;16.388;2022-12-17T13:25:44;37.30;;;22.17;;
19329;SDS011;9799;48.214;16.388;2022-12-17T13:29:20;37.53;;;20.80;;
19329;SDS011;9799;48.214;16.388;2022-12-17T13:32:44;40.57;;;24.87;;
19329;SDS011;9799;48.214;16.388;2022-12-17T13:36:13;35.43;;;22.03;;
19329;SDS011;9799;48.214;16.388;2022-12-17T13:39:40;31.83;;;19.13;;
19329;SDS011;9799;48.214;16.388;2022-12-17T13:43:14;32.30;;;19.87;;
19329;SDS011;9799;48.214;16.388;2022-12-17T13:46:40;33.80;;;20.30;;
19329;SDS011;9799;48.214;16.388;2022-12-17T13:50:03;33.10;;;21.03;;
19329;SDS011;9799;48.214;16.388;2022-12-17T13:53:40;36.03;;;21.13;;
19329;SDS011;9799;48.214;16.388;2022-12-17T13:57:13;35.27;;;20.47;;
19329;SDS011;9799;48.214;16.388;2022-12-17T14:00:36;32.43;;;20.80;;
19329;SDS011;9799;48.214;16.388;2022-12-17T14:03:58;35.13;;;21.77;;
19329;SDS011;9799;48.214;16.388;2022-12-17T14:07:20;39.50;;;23.50;;
19329;SDS011;9799;48.214;16.388;2022-12-17T14:10:46;37.30;;;21.10;;
19329;SDS011;9799;48.214;16.388;2022-12-17T14:14:13;35.73;;;20.90;;
19329;SDS011;9799;48.214;16.388;2022-12-17T14:17:41;35.27;;;21.10;;
19329;SDS011;9799;48.214;16.388;2022-12-17T14:21:05;33.47;;;21.33;;
19329;SDS011;9799;48.214;16.388;2022-12-17T14:24:28;37.93;;;22.57;;
19329;SDS011;9799;48.214;16.388;2022-12-17T14:27:52;40.23;;;23.83;;
19329;SDS011;9799;48.214;16.388;2022-12-17T14:31:17;38.97;;;23.30;;
19329;SDS011;9799;48.214;16.388;2022-12-17T14:34:40;39.33;;;22.83;;
19329;SDS011;9799;48.214;16.388;2022-12-17T14:38:01;37.90;;;22.23;;
19329;SDS011;9799;48.214;16.388;2022-12-17T14:41:23;42.90;;;25.33;;
19329;SDS011;9799;48.214;16.388;2022-12-17T14:45:04;38.57;;;22.13;;
19329;SDS011;9799;48.214;16.388;2022-12-17T14:48:39;38.87;;;23.80;;
19329;SDS011;9799;48.214;16.388;2022-12-17T14:52:19;39.30;;;23.77;;
19329;SDS011;9799;48.214;16.388;2022-12-17T14:55:50;41.07;;;24.83;;
19329;SDS011;9799;48.214;16.388;2022-12-17T14:59:21;36.47;;;23.17;;
19329;SDS011;9799;48.214;16.388;2022-12-17T15:02:49;40.77;;;24.47;;
19329;SDS011;9799;48.214;16.388;2022-12-17T15:06:12;42.63;;;25.23;;
19329;SDS011;9799;48.214;16.388;2022-12-17T15:09:37;39.47;;;22.70;;
19329;SDS011;9799;48.214;16.388;2022-12-17T15:13:00;39.90;;;22.80;;
19329;SDS011;9799;48.214;16.388;2022-12-17T15:16:21;39.60;;;24.07;;
19329;SDS011;9799;48.214;16.388;2022-12-17T15:19:44;40.33;;;24.60;;
19329;SDS011;9799;48.214;16.388;2022-12-17T15:23:08;38.20;;;23.23;;
19329;SDS011;9799;48.214;16.388;2022-12-17T15:26:34;39.17;;;23.07;;
19329;SDS011;9799;48.214;16.388;2022-12-17T15:29:55;41.03;;;22.90;;
19329;SDS011;9799;48.214;16.388;2022-12-17T15:33:16;39.40;;;23.77;;
19329;SDS011;9799;48.214;16.388;2022-12-17T15:36:39;39.63;;;23.90;;
19329;SDS011;9799;48.214;16.388;2022-12-17T15:40:01;40.17;;;23.23;;
19329;SDS011;9799;48.214;16.388;2022-12-17T15:43:22;36.40;;;23.00;;
19329;SDS011;9799;48.214;16.388;2022-12-17T15:46:44;34.67;;;20.97;;
19329;SDS011;9799;48.214;16.388;2022-12-17T15:50:05;33.57;;;20.97;;
19329;SDS011;9799;48.214;16.388;2022-12-17T15:53:30;34.50;;;21.53;;
19329;SDS011;9799;48.214;16.388;2022-12-17T15:56:51;37.83;;;22.80;;
19329;SDS011;9799;48.214;16.388;2022-12-17T16:00:14;30.67;;;18.70;;
19329;SDS011;9799;48.214;16.388;2022-12-17T16:03:38;32.27;;;20.20;;
19329;SDS011;9799;48.214;16.388;2022-12-17T16:06:59;39.13;;;20.47;;
19329;SDS011;9799;48.214;16.388;2022-12-17T16:10:22;32.43;;;21.10;;
19329;SDS011;9799;48.214;16.388;2022-12-17T16:13:45;31.87;;;19.33;;
19329;SDS011;9799;48.214;16.388;2022-12-17T16:17:06;32.60;;;18.30;;
19329;SDS011;9799;48.214;16.388;2022-12-17T16:20:28;28.13;;;17.27;;
19329;SDS011;9799;48.214;16.388;2022-12-17T16:23:49;29.87;;;16.97;;
19329;SDS011;9799;48.214;16.388;2022-12-17T16:27:12;23.20;;;15.97;;
19329;SDS011;9799;48.214;16.388;2022-12-17T16:30:35;23.60;;;15.40;;
19329;SDS011;9799;48.214;16.388;2022-12-17T16:33:59;31.57;;;16.70;;
19329;SDS011;9799;48.214;16.388;2022-12-17T16:37:20;30.00;;;20.45;;
19329;SDS011;9799;48.214;16.388;2022-12-17T16:40:41;25.60;;;15.60;;
19329;SDS011;9799;48.214;16.388;2022-12-17T16:44:04;29.70;;;14.23;;
19329;SDS011;9799;48.214;16.388;2022-12-17T16:47:25;25.90;;;14.70;;
19329;SDS011;9799;48.214;16.388;2022-12-17T16:50:47;22.23;;;14.17;;
19329;SDS011;9799;48.214;16.388;2022-12-17T16:54:12;21.97;;;14.17;;
19329;SDS011;9799;48.214;16.388;2022-12-17T16:57:35;24.20;;;13.90;;
19329;SDS011;9799;48.214;16.388;2022-12-17T17:00:58;25.67;;;14.30;;
19329;SDS011;9799;48.214;16.388;2022-12-17T17:04:19;19.80;;;13.17;;
19329;SDS011;9799;48.214;16.388;2022-12-17T17:07:42;25.53;;;15.37;;
19329;SDS011;9799;48.214;16.388;2022-12-17T17:11:05;22.43;;;14.07;;
19329;SDS011;9799;48.214;16.388;2022-12-17T17:14:28;20.90;;;12.87;;
19329;SDS011;9799;48.214;16.388;2022-12-17T17:17:50;24.10;;;14.40;;
19329;SDS011;9799;48.214;16.388;2022-12-17T17:21:15;20.80;;;12.77;;
19329;SDS011;9799;48.214;16.388;2022-12-17T17:24:44;22.90;;;14.27;;
19329;SDS011;9799;48.214;16.388;2022-12-17T17:28:05;20.20;;;13.27;;
19329;SDS011;9799;48.214;16.388;2022-12-17T17:31:26;22.63;;;13.77;;
19329;SDS011;9799;48.214;16.388;2022-12-17T17:34:49;20.17;;;13.60;;
19329;SDS011;9799;48.214;16.388;2022-12-17T17:38:10;21.07;;;13.83;;
19329;SDS011;9799;48.214;16.388;2022-12-17T17:41:32;21.57;;;13.30;;
19329;SDS011;9799;48.214;16.388;2022-12-17T17:44:54;31.90;;;15.43;;
19329;SDS011;9799;48.214;16.388;2022-12-17T17:48:15;25.97;;;16.00;;
19329;SDS011;9799;48.214;16.388;2022-12-17T17:51:38;25.80;;;14.60;;
19329;SDS011;9799;48.214;16.388;2022-12-17T17:55:01;25.30;;;15.23;;
19329;SDS011;9799;48.214;16.388;2022-12-17T17:58:22;26.07;;;15.03;;
19329;SDS011;9799;48.214;16.388;2022-12-17T18:01:44;32.27;;;14.80;;
19329;SDS011;9799;48.214;16.388;2022-12-17T18:05:07;27.73;;;16.63;;
19329;SDS011;9799;48.214;16.388;2022-12-17T18:08:30;22.90;;;14.20;;
19329;SDS011;9799;48.214;16.388;2022-12-17T18:11:52;23.40;;;13.57;;
19329;SDS011;9799;48.214;16.388;2022-12-17T18:15:13;23.97;;;15.07;;
19329;SDS011;9799;48.214;16.388;2022-12-17T18:18:34;25.90;;;14.40;;
19329;SDS011;9799;48.214;16.388;2022-12-17T18:21:55;24.63;;;15.00;;
19329;SDS011;9799;48.214;16.388;2022-12-17T18:25:18;22.47;;;14.33;;
19329;SDS011;9799;48.214;16.388;2022-12-17T18:28:40;26.03;;;15.17;;
19329;SDS011;9799;48.214;16.388;2022-12-17T18:32:02;18.53;;;12.60;;
19329;SDS011;9799;48.214;16.388;2022-12-17T18:35:24;23.00;;;14.40;;
19329;SDS011;9799;48.214;16.388;2022-12-17T18:38:45;22.07;;;14.33;;
19329;SDS011;9799;48.214;16.388;2022-12-17T18:42:09;21.33;;;13.60;;
19329;SDS011;9799;48.214;16.388;2022-12-17T18:45:48;23.13;;;14.53;;
19329;SDS011;9799;48.214;16.388;2022-12-17T18:49:10;22.40;;;14.43;;
19329;SDS011;9799;48.214;16.388;2022-12-17T18:52:33;19.83;;;12.57;;
19329;SDS011;9799;48.214;16.388;2022-12-17T18:55:54;20.17;;;13.07;;
19329;SDS011;9799;48.214;16.388;2022-12-17T18:59:17;20.47;;;12.73;;
19329;SDS011;9799;48.214;16.388;2022-12-17T19:02:40;17.57;;;12.67;;
19329;SDS011;9799;48.214;16.388;2022-12-17T19:06:06;18.97;;;11.57;;
19329;SDS011;9799;48.214;16.388;2022-12-17T19:09:28;20.90;;;13.07;;
19329;SDS011;9799;48.214;16.388;2022-12-17T19:12:54;22.37;;;13.27;;
19329;SDS011;9799;48.214;16.388;2022-12-17T19:16:16;19.50;;;12.47;;
19329;SDS011;9799;48.214;16.388;2022-12-17T19:19:39;21.87;;;13.40;;
19329;SDS011;9799;48.214;16.388;2022-12-17T19:23:01;20.90;;;12.83;;
19329;SDS011;9799;48.214;16.388;2022-12-17T19:26:23;24.17;;;14.03;;
19329;SDS011;9799;48.214;16.388;2022-12-17T19:29:45;24.27;;;13.40;;
19329;SDS011;9799;48.214;16.388;2022-12-17T19:33:07;20.67;;;12.87;;
19329;SDS011;9799;48.214;16.388;2022-12-17T19:36:29;24.27;;;13.47;;
19329;SDS011;9799;48.214;16.388;2022-12-17T19:39:52;22.90;;;14.03;;
19329;SDS011;9799;48.214;16.388;2022-12-17T19:43:13;22.77;;;13.13;;
19329;SDS011;9799;48.214;16.388;2022-12-17T19:46:34;19.77;;;12.57;;
19329;SDS011;9799;48.214;16.388;2022-12-17T19:49:57;19.20;;;11.67;;
19329;SDS011;9799;48.214;16.388;2022-12-17T19:53:19;18.47;;;11.20;;
19329;SDS011;9799;48.214;16.388;2022-12-17T19:56:41;19.53;;;12.70;;
19329;SDS011;9799;48.214;16.388;2022-12-17T20:00:04;19.13;;;11.73;;
19329;SDS011;9799;48.214;16.388;2022-12-17T20:03:27;18.43;;;11.63;;
19329;SDS011;9799;48.214;16.388;2022-12-17T20:06:50;18.80;;;11.17;;
19329;SDS011;9799;48.214;16.388;2022-12-17T20:10:11;16.10;;;10.47;;
19329;SDS011;9799;48.214;16.388;2022-12-17T20:13:33;15.63;;;10.07;;
19329;SDS011;9799;48.214;16.388;2022-12-17T20:16:55;15.87;;;10.57;;
19329;SDS011;9799;48.214;16.388;2022-12-17T20:20:18;14.93;;;10.73;;
19329;SDS011;9799;48.214;16.388;2022-12-17T20:23:40;17.00;;;10.20;;
19329;SDS011;9799;48.214;16.388;2022-12-17T20:27:02;15.53;;;10.53;;
19329;SDS011;9799;48.214;16.388;2022-12-17T20:30:24;16.43;;;10.37;;
19329;SDS011;9799;48.214;16.388;2022-12-17T20:33:48;17.23;;;11.00;;
19329;SDS011;9799;48.214;16.388;2022-12-17T20:37:09;17.03;;;10.13;;
19329;SDS011;9799;48.214;16.388;2022-12-17T20:40:33;13.97;;;9.93;;
19329;SDS011;9799;48.214;16.388;2022-12-17T20:44:00;15.30;;;9.83;;
19329;SDS011;9799;48.214;16.388;2022-12-17T20:47:24;14.03;;;10.00;;
19329;SDS011;9799;48.214;16.388;2022-12-17T20:50:45;15.23;;;8.87;;
19329;SDS011;9799;48.214;16.388;2022-12-17T20:54:08;15.87;;;9.73;;
19329;SDS011;9799;48.214;16.388;2022-12-17T20:57:31;12.63;;;8.87;;